createdAt,value
2018-10-07T00:00:05.678Z,94.36
2018-10-07T00:01:05.674Z,95.03
2018-10-07T00:02:05.677Z,94.36
2018-10-07T00:03:05.673Z,95.03
2018-10-07T00:04:05.677Z,94.84
2018-10-07T00:05:05.670Z,94.45
2018-10-07T00:06:05.675Z,94.74
2018-10-07T00:07:05.670Z,94.93
2018-10-07T00:08:05.667Z,94.93
2018-10-07T00:09:05.679Z,95.03
2018-10-07T00:10:05.666Z,94.74
2018-10-07T00:11:05.663Z,94.84
2018-10-07T00:12:05.665Z,94.84
2018-10-07T00:13:05.671Z,95.12
2018-10-07T00:14:05.666Z,95.70
2018-10-07T00:15:05.658Z,95.22
2018-10-07T00:16:05.657Z,95.70
2018-10-07T00:17:05.655Z,95.70
2018-10-07T00:18:06.275Z,95.41
2018-10-07T00:19:05.656Z,95.41
2018-10-07T00:20:05.658Z,95.12
2018-10-07T00:21:05.654Z,95.79
2018-10-07T00:22:05.648Z,95.61
2018-10-07T00:23:05.648Z,95.61
2018-10-07T00:24:05.645Z,95.98
2018-10-07T00:25:05.640Z,95.79
2018-10-07T00:26:05.645Z,96.27
2018-10-07T00:27:05.644Z,96.80
2018-10-07T00:28:05.641Z,96.61
2018-10-07T00:29:05.639Z,96.89
2018-10-07T00:30:05.636Z,97.18
2018-10-07T00:31:05.640Z,97.56
2018-10-07T00:32:05.631Z,97.56
2018-10-07T00:33:05.638Z,97.47
2018-10-07T00:34:05.630Z,97.18
2018-10-07T00:35:05.634Z,97.75
2018-10-07T00:36:05.630Z,98.14
2018-10-07T00:37:05.621Z,97.85
2018-10-07T00:38:05.624Z,98.14
2018-10-07T00:39:05.635Z,97.52
2018-10-07T00:40:05.629Z,98.24
2018-10-07T00:41:05.652Z,98.28
2018-10-07T00:42:05.618Z,98.28
2018-10-07T00:43:05.621Z,99.24
2018-10-07T00:44:05.617Z,99.14
2018-10-07T00:45:05.611Z,99.33
2018-10-07T00:46:05.616Z,99.14
2018-10-07T00:47:05.607Z,99.99
2018-10-07T00:48:05.614Z,99.71
2018-10-07T00:49:05.605Z,99.99
2018-10-07T00:50:05.601Z,99.99
2018-10-07T00:51:05.602Z,99.99
2018-10-07T00:52:05.605Z,99.99
2018-10-07T00:53:05.600Z,99.99
2018-10-07T00:54:05.594Z,99.99
2018-10-07T00:55:05.611Z,99.99
2018-10-07T00:56:05.593Z,99.99
2018-10-07T00:57:05.592Z,99.99
2018-10-07T00:58:05.590Z,99.99
2018-10-07T00:59:05.583Z,99.99
2018-10-07T01:00:05.586Z,99.99
2018-10-07T01:01:05.584Z,99.99
2018-10-07T01:02:05.582Z,99.99
2018-10-07T01:03:05.579Z,99.99
2018-10-07T01:04:05.576Z,99.99
2018-10-07T01:05:05.573Z,99.99
2018-10-07T01:06:05.571Z,99.99
2018-10-07T01:07:05.568Z,99.99
2018-10-07T01:08:05.572Z,99.99
2018-10-07T01:09:05.566Z,99.99
2018-10-07T01:10:05.581Z,99.99
2018-10-07T01:11:05.567Z,99.99
2018-10-07T01:12:05.563Z,99.99
2018-10-07T01:13:05.556Z,99.99
2018-10-07T01:14:05.566Z,99.99
2018-10-07T01:15:05.557Z,99.99
2018-10-07T01:16:05.553Z,99.99
2018-10-07T01:17:05.553Z,99.99
2018-10-07T01:18:05.550Z,99.99
2018-10-07T01:19:05.544Z,99.99
2018-10-07T01:20:05.543Z,99.99
2018-10-07T01:21:05.540Z,99.99
2018-10-07T01:22:05.536Z,99.99
2018-10-07T01:23:05.535Z,99.99
2018-10-07T01:24:05.533Z,99.99
2018-10-07T01:25:05.529Z,99.99
2018-10-07T01:26:05.533Z,99.99
2018-10-07T01:27:05.530Z,99.99
2018-10-07T01:28:05.524Z,99.99
2018-10-07T01:29:05.527Z,99.99
2018-10-07T01:30:05.524Z,99.99
2018-10-07T01:31:05.519Z,99.99
2018-10-07T01:32:05.512Z,99.99
2018-10-07T01:33:05.513Z,99.99
2018-10-07T01:34:05.507Z,99.99
2018-10-07T01:35:05.508Z,99.99
2018-10-07T01:36:05.508Z,99.99
2018-10-07T01:37:05.503Z,99.99
2018-10-07T01:38:05.500Z,99.99
2018-10-07T01:39:05.502Z,99.99
2018-10-07T01:40:05.499Z,99.99
2018-10-07T01:41:05.500Z,99.99
2018-10-07T01:42:05.490Z,99.99
2018-10-07T01:43:05.490Z,99.99
2018-10-07T01:44:05.488Z,99.99
2018-10-07T01:45:05.496Z,99.99
2018-10-07T01:46:05.494Z,99.99
2018-10-07T01:47:05.484Z,99.99
2018-10-07T01:48:05.477Z,99.99
2018-10-07T01:49:05.475Z,99.99
2018-10-07T01:50:05.474Z,99.99
2018-10-07T01:51:05.473Z,99.99
2018-10-07T01:52:05.475Z,99.99
2018-10-07T01:53:05.470Z,99.99
2018-10-07T01:54:05.465Z,99.99
2018-10-07T01:55:05.475Z,99.99
2018-10-07T01:56:05.461Z,99.99
2018-10-07T01:57:05.461Z,99.99
2018-10-07T01:58:05.453Z,99.99
2018-10-07T01:59:05.457Z,99.99
2018-10-07T02:00:05.450Z,99.99
2018-10-07T02:01:05.446Z,99.99
2018-10-07T02:02:05.444Z,99.99
2018-10-07T02:03:05.439Z,99.99
2018-10-07T02:04:05.442Z,99.99
2018-10-07T02:05:05.501Z,99.99
2018-10-07T02:06:05.430Z,99.99
2018-10-07T02:07:05.430Z,99.99
2018-10-07T02:08:05.434Z,99.99
2018-10-07T02:09:05.423Z,99.99
2018-10-07T02:10:05.474Z,99.99
2018-10-07T02:11:05.427Z,99.99
2018-10-07T02:12:05.421Z,99.99
2018-10-07T02:13:05.415Z,99.99
2018-10-07T02:14:05.473Z,99.99
2018-10-07T02:15:05.411Z,99.99
2018-10-07T02:16:05.410Z,99.99
2018-10-07T02:17:05.433Z,99.99
2018-10-07T02:18:05.403Z,99.99
2018-10-07T02:19:05.405Z,99.99
2018-10-07T02:20:05.396Z,99.99
2018-10-07T02:21:05.400Z,99.99
2018-10-07T02:22:07.316Z,99.99
2018-10-07T02:23:05.384Z,99.99
2018-10-07T02:24:05.384Z,99.99
2018-10-07T02:25:05.382Z,99.99
2018-10-07T02:26:05.383Z,99.99
2018-10-07T02:27:05.376Z,99.99
2018-10-07T02:28:05.381Z,99.99
2018-10-07T02:29:05.368Z,99.99
2018-10-07T02:30:05.381Z,99.99
2018-10-07T02:31:05.371Z,99.99
2018-10-07T02:32:05.367Z,99.99
2018-10-07T02:33:05.362Z,99.99
2018-10-07T02:34:05.358Z,99.99
2018-10-07T02:35:05.360Z,99.99
2018-10-07T02:36:05.356Z,99.99
2018-10-07T02:37:05.349Z,99.99
2018-10-07T02:38:05.345Z,99.99
2018-10-07T02:39:05.349Z,99.99
2018-10-07T02:40:05.341Z,99.99
2018-10-07T02:41:05.337Z,99.99
2018-10-07T02:42:05.347Z,99.99
2018-10-07T02:43:05.337Z,99.99
2018-10-07T02:44:05.331Z,99.99
2018-10-07T02:45:05.332Z,99.99
2018-10-07T02:46:05.324Z,99.99
2018-10-07T02:47:05.328Z,99.99
2018-10-07T02:48:05.323Z,99.99
2018-10-07T02:49:05.317Z,99.99
2018-10-07T02:50:05.315Z,99.99
2018-10-07T02:51:05.313Z,99.99
2018-10-07T02:52:05.307Z,99.99
2018-10-07T02:53:05.371Z,99.99
2018-10-07T02:54:05.306Z,99.99
2018-10-07T02:55:05.299Z,99.99
2018-10-07T02:56:05.301Z,99.99
2018-10-07T02:57:05.298Z,99.99
2018-10-07T02:58:05.293Z,99.99
2018-10-07T02:59:05.291Z,99.99
2018-10-07T03:00:05.287Z,99.99
2018-10-07T03:01:05.285Z,99.99
2018-10-07T03:02:05.284Z,99.99
2018-10-07T03:03:05.283Z,99.99
2018-10-07T03:04:05.275Z,99.99
2018-10-07T03:05:05.270Z,99.99
2018-10-07T03:06:05.270Z,99.99
2018-10-07T03:07:05.266Z,99.99
2018-10-07T03:08:05.277Z,99.99
2018-10-07T03:09:05.273Z,99.99
2018-10-07T03:10:05.259Z,99.99
2018-10-07T03:11:05.259Z,99.99
2018-10-07T03:12:05.253Z,99.99
2018-10-07T03:13:05.251Z,99.99
2018-10-07T03:14:05.247Z,99.99
2018-10-07T03:15:05.246Z,99.99
2018-10-07T03:16:05.257Z,99.99
2018-10-07T03:17:05.237Z,99.99
2018-10-07T03:18:05.234Z,99.99
2018-10-07T03:19:05.236Z,99.99
2018-10-07T03:20:05.229Z,99.99
2018-10-07T03:21:05.225Z,99.99
2018-10-07T03:22:05.219Z,99.99
2018-10-07T03:23:05.221Z,99.99
2018-10-07T03:24:05.225Z,99.99
2018-10-07T03:25:05.213Z,99.99
2018-10-07T03:26:05.213Z,99.99
2018-10-07T03:27:05.211Z,99.99
2018-10-07T03:28:05.207Z,99.99
2018-10-07T03:29:05.209Z,99.99
2018-10-07T03:30:05.210Z,99.99
2018-10-07T03:31:05.200Z,99.99
2018-10-07T03:32:05.194Z,99.99
2018-10-07T03:33:05.187Z,99.99
2018-10-07T03:34:05.187Z,99.99
2018-10-07T03:35:05.183Z,99.99
2018-10-07T03:36:05.182Z,99.99
2018-10-07T03:37:05.176Z,99.99
2018-10-07T03:38:05.174Z,99.99
2018-10-07T03:39:05.177Z,99.99
2018-10-07T03:40:05.167Z,99.99
2018-10-07T03:41:05.171Z,99.99
2018-10-07T03:42:05.163Z,99.99
2018-10-07T03:43:05.160Z,99.99
2018-10-07T03:44:05.163Z,99.99
2018-10-07T03:45:05.154Z,99.99
2018-10-07T03:46:05.150Z,99.99
2018-10-07T03:47:05.146Z,99.99
2018-10-07T03:48:05.142Z,99.99
2018-10-07T03:49:05.143Z,99.99
2018-10-07T03:50:05.138Z,99.99
2018-10-07T03:51:05.140Z,99.99
2018-10-07T03:52:05.130Z,99.99
2018-10-07T03:53:05.130Z,99.99
2018-10-07T03:54:05.126Z,99.99
2018-10-07T03:55:05.123Z,99.99
2018-10-07T03:56:05.115Z,99.99
2018-10-07T03:57:05.118Z,99.99
2018-10-07T03:58:05.840Z,99.99
2018-10-07T03:59:05.112Z,99.99
2018-10-07T04:00:05.105Z,99.99
2018-10-07T04:01:05.108Z,99.99
2018-10-07T04:02:05.101Z,99.99
2018-10-07T04:03:05.096Z,99.99
2018-10-07T04:04:05.102Z,99.99
2018-10-07T04:05:05.090Z,99.99
2018-10-07T04:06:05.088Z,99.99
2018-10-07T04:07:05.085Z,99.99
2018-10-07T04:08:05.083Z,99.99
2018-10-07T04:09:05.077Z,99.99
2018-10-07T04:10:05.074Z,99.99
2018-10-07T04:11:05.072Z,99.99
2018-10-07T04:12:05.084Z,99.99
2018-10-07T04:13:05.064Z,99.99
2018-10-07T04:14:05.061Z,99.99
2018-10-07T04:15:05.060Z,99.99
2018-10-07T04:16:05.057Z,99.99
2018-10-07T04:17:05.049Z,99.99
2018-10-07T04:18:05.047Z,99.99
2018-10-07T04:19:05.048Z,99.99
2018-10-07T04:20:05.049Z,99.99
2018-10-07T04:21:05.051Z,99.99
2018-10-07T04:22:05.037Z,99.99
2018-10-07T04:23:05.038Z,99.99
2018-10-07T04:24:05.029Z,99.99
2018-10-07T04:25:05.034Z,99.99
2018-10-07T04:26:05.022Z,99.99
2018-10-07T04:27:05.023Z,99.99
2018-10-07T04:28:05.022Z,99.99
2018-10-07T04:29:05.015Z,99.99
2018-10-07T04:30:05.016Z,99.99
2018-10-07T04:31:05.006Z,99.99
2018-10-07T04:32:05.006Z,99.99
2018-10-07T04:33:05.003Z,99.99
2018-10-07T04:34:05.012Z,99.99
2018-10-07T04:35:04.996Z,99.99
2018-10-07T04:36:05.000Z,99.99
2018-10-07T04:37:04.988Z,99.99
2018-10-07T04:38:04.986Z,99.99
2018-10-07T04:39:04.989Z,99.99
2018-10-07T04:40:04.995Z,99.99
2018-10-07T04:41:04.980Z,99.99
2018-10-07T04:42:04.971Z,99.99
2018-10-07T04:43:04.970Z,99.99
2018-10-07T04:44:04.979Z,99.99
2018-10-07T04:45:04.962Z,99.99
2018-10-07T04:46:04.961Z,99.99
2018-10-07T04:47:04.968Z,99.99
2018-10-07T04:48:04.965Z,99.99
2018-10-07T04:49:04.961Z,99.99
2018-10-07T04:50:04.946Z,99.99
2018-10-07T04:51:04.951Z,99.99
2018-10-07T04:52:04.947Z,99.99
2018-10-07T04:53:04.976Z,99.99
2018-10-07T04:54:04.959Z,99.99
2018-10-07T04:55:04.938Z,99.99
2018-10-07T04:56:04.933Z,99.99
2018-10-07T04:57:04.933Z,99.99
2018-10-07T04:58:04.936Z,99.99
2018-10-07T04:59:04.921Z,99.99
2018-10-07T05:00:04.933Z,99.99
2018-10-07T05:01:04.918Z,99.99
2018-10-07T05:02:04.911Z,99.99
2018-10-07T05:03:05.857Z,99.99
2018-10-07T05:04:04.907Z,99.99
2018-10-07T05:05:04.923Z,99.99
2018-10-07T05:06:04.902Z,99.99
2018-10-07T05:07:04.921Z,99.99
2018-10-07T05:08:04.908Z,99.99
2018-10-07T05:09:04.890Z,99.99
2018-10-07T05:10:04.883Z,99.99
2018-10-07T05:11:04.886Z,99.99
2018-10-07T05:12:04.933Z,99.99
2018-10-07T05:13:04.877Z,99.99
2018-10-07T05:14:04.878Z,99.99
2018-10-07T05:15:04.870Z,99.99
2018-10-07T05:16:04.877Z,99.99
2018-10-07T05:17:04.867Z,99.99
2018-10-07T05:18:04.864Z,99.99
2018-10-07T05:19:04.860Z,99.99
2018-10-07T05:20:04.862Z,99.99
2018-10-07T05:21:04.909Z,99.99
2018-10-07T05:22:04.850Z,99.99
2018-10-07T05:23:04.850Z,99.99
2018-10-07T05:24:04.842Z,99.99
2018-10-07T05:25:04.841Z,99.99
2018-10-07T05:26:04.835Z,99.99
2018-10-07T05:27:04.833Z,99.99
2018-10-07T05:28:04.828Z,99.99
2018-10-07T05:29:04.836Z,99.99
2018-10-07T05:30:04.830Z,99.99
2018-10-07T05:31:04.822Z,99.99
2018-10-07T05:32:04.815Z,99.99
2018-10-07T05:33:04.822Z,99.99
2018-10-07T05:34:04.812Z,99.99
2018-10-07T05:35:04.819Z,99.99
2018-10-07T05:36:04.810Z,99.99
2018-10-07T05:37:04.804Z,99.99
2018-10-07T05:38:04.798Z,99.99
2018-10-07T05:39:04.795Z,99.99
2018-10-07T05:40:04.794Z,99.99
2018-10-07T05:41:04.788Z,99.99
2018-10-07T05:42:04.788Z,99.99
2018-10-07T05:43:04.782Z,99.99
2018-10-07T05:44:04.787Z,99.99
2018-10-07T05:45:04.782Z,99.99
2018-10-07T05:46:04.771Z,99.99
2018-10-07T05:47:04.775Z,99.99
2018-10-07T05:48:04.769Z,99.99
2018-10-07T05:49:04.770Z,99.99
2018-10-07T05:50:04.764Z,99.99
2018-10-07T05:51:04.757Z,99.99
2018-10-07T05:52:04.759Z,99.99
2018-10-07T05:53:04.751Z,99.99
2018-10-07T05:54:04.750Z,99.99
2018-10-07T05:55:04.747Z,99.99
2018-10-07T05:56:04.742Z,99.99
2018-10-07T05:57:04.739Z,99.99
2018-10-07T05:58:04.745Z,99.99
2018-10-07T05:59:04.742Z,99.99
2018-10-07T06:00:04.733Z,99.99
2018-10-07T06:01:04.729Z,99.99
2018-10-07T06:02:04.781Z,99.99
2018-10-07T06:03:04.724Z,99.99
2018-10-07T06:04:04.728Z,99.99
2018-10-07T06:05:04.720Z,99.99
2018-10-07T06:06:04.716Z,99.99
2018-10-07T06:07:04.709Z,99.99
2018-10-07T06:08:04.713Z,99.99
2018-10-07T06:09:04.710Z,99.99
2018-10-07T06:10:04.707Z,99.99
2018-10-07T06:11:04.700Z,99.99
2018-10-07T06:12:04.701Z,99.99
2018-10-07T06:13:04.707Z,99.99
2018-10-07T06:14:04.696Z,99.99
2018-10-07T06:15:04.695Z,99.99
2018-10-07T06:16:04.684Z,99.99
2018-10-07T06:17:04.691Z,99.99
2018-10-07T06:18:04.682Z,99.99
2018-10-07T06:19:04.673Z,99.99
2018-10-07T06:20:04.675Z,99.99
2018-10-07T06:21:04.667Z,99.99
2018-10-07T06:22:04.675Z,99.99
2018-10-07T06:23:04.671Z,99.99
2018-10-07T06:24:04.659Z,99.99
2018-10-07T06:25:04.661Z,99.99
2018-10-07T06:26:04.658Z,99.99
2018-10-07T06:27:04.656Z,99.99
2018-10-07T06:28:04.651Z,99.99
2018-10-07T06:29:04.645Z,99.99
2018-10-07T06:30:04.648Z,99.99
2018-10-07T06:31:04.640Z,99.99
2018-10-07T06:32:04.637Z,99.99
2018-10-07T06:33:04.635Z,99.99
2018-10-07T06:34:04.634Z,99.99
2018-10-07T06:35:04.626Z,99.99
2018-10-07T06:36:04.627Z,99.99
2018-10-07T06:37:04.620Z,99.99
2018-10-07T06:38:04.619Z,99.99
2018-10-07T06:39:04.617Z,99.99
2018-10-07T06:40:04.615Z,99.99
2018-10-07T06:41:04.613Z,99.99
2018-10-07T06:42:04.606Z,99.99
2018-10-07T06:43:04.607Z,99.99
2018-10-07T06:44:04.600Z,99.99
2018-10-07T06:45:04.600Z,99.99
2018-10-07T06:46:04.595Z,99.99
2018-10-07T06:47:04.591Z,99.99
2018-10-07T06:48:04.592Z,99.99
2018-10-07T06:49:04.585Z,99.99
2018-10-07T06:50:04.593Z,99.99
2018-10-07T06:51:04.576Z,99.99
2018-10-07T06:52:04.576Z,99.99
2018-10-07T06:53:04.574Z,99.99
2018-10-07T06:54:05.387Z,99.99
2018-10-07T06:55:04.569Z,99.99
2018-10-07T06:56:04.565Z,99.99
2018-10-07T06:57:04.561Z,99.99
2018-10-07T06:58:04.559Z,99.99
2018-10-07T06:59:04.563Z,99.99
2018-10-07T07:00:04.560Z,99.99
2018-10-07T07:01:04.549Z,99.99
2018-10-07T07:02:04.544Z,99.99
2018-10-07T07:03:04.545Z,99.99
2018-10-07T07:04:04.540Z,99.99
2018-10-07T07:05:04.535Z,99.99
2018-10-07T07:06:04.534Z,99.99
2018-10-07T07:07:04.535Z,99.99
2018-10-07T07:08:04.531Z,99.99
2018-10-07T07:09:04.526Z,99.99
2018-10-07T07:10:04.524Z,99.99
2018-10-07T07:11:04.534Z,99.99
2018-10-07T07:12:04.515Z,99.99
2018-10-07T07:13:04.552Z,99.99
2018-10-07T07:14:04.516Z,99.99
2018-10-07T07:15:04.506Z,99.99
2018-10-07T07:16:04.511Z,99.99
2018-10-07T07:17:04.504Z,99.99
2018-10-07T07:18:04.504Z,99.99
2018-10-07T07:19:04.497Z,99.99
2018-10-07T07:20:04.534Z,99.99
2018-10-07T07:21:04.491Z,99.99
2018-10-07T07:22:04.485Z,99.99
2018-10-07T07:23:04.482Z,99.99
2018-10-07T07:24:04.485Z,99.99
2018-10-07T07:25:04.480Z,99.99
2018-10-07T07:26:04.474Z,99.99
2018-10-07T07:27:04.478Z,99.99
2018-10-07T07:28:04.470Z,99.99
2018-10-07T07:29:04.472Z,99.99
2018-10-07T07:30:04.463Z,99.99
2018-10-07T07:31:04.463Z,99.99
2018-10-07T07:32:04.457Z,99.99
2018-10-07T07:33:04.454Z,99.99
2018-10-07T07:34:04.449Z,99.99
2018-10-07T07:35:04.450Z,99.99
2018-10-07T07:36:04.443Z,99.99
2018-10-07T07:37:04.439Z,99.99
2018-10-07T07:38:04.440Z,99.99
2018-10-07T07:39:04.438Z,99.99
2018-10-07T07:40:04.440Z,99.99
2018-10-07T07:41:04.433Z,99.99
2018-10-07T07:42:04.438Z,99.99
2018-10-07T07:43:04.423Z,99.99
2018-10-07T07:44:04.417Z,99.99
2018-10-07T07:45:04.412Z,99.99
2018-10-07T07:46:04.410Z,99.99
2018-10-07T07:47:04.406Z,99.99
2018-10-07T07:48:04.402Z,99.99
2018-10-07T07:49:04.426Z,99.99
2018-10-07T07:50:04.396Z,99.95
2018-10-07T07:51:04.393Z,99.85
2018-10-07T07:52:04.414Z,99.38
2018-10-07T07:53:04.386Z,99.85
2018-10-07T07:54:04.391Z,99.85
2018-10-07T07:55:04.404Z,98.42
2018-10-07T07:56:04.382Z,99.19
2018-10-07T07:57:04.371Z,98.61
2018-10-07T07:58:04.368Z,98.80
2018-10-07T07:59:04.366Z,98.71
2018-10-07T08:00:04.364Z,98.71
2018-10-07T08:01:04.358Z,98.61
2018-10-07T08:02:04.372Z,98.71
2018-10-07T08:03:04.356Z,98.42
2018-10-07T08:04:04.352Z,98.13
2018-10-07T08:05:04.354Z,98.13
2018-10-07T08:06:04.354Z,98.13
2018-10-07T08:07:39.982Z,97.94
2018-10-07T08:08:04.378Z,97.66
2018-10-07T08:09:04.351Z,97.75
2018-10-07T08:10:04.333Z,97.66
2018-10-07T08:11:04.327Z,97.47
2018-10-07T08:12:04.323Z,97.85
2018-10-07T08:13:04.323Z,97.75
2018-10-07T08:14:04.321Z,98.28
2018-10-07T08:15:04.906Z,98.08
2018-10-07T08:16:04.311Z,98.57
2018-10-07T08:17:04.313Z,98.75
2018-10-07T08:18:04.312Z,99.14
2018-10-07T08:19:04.297Z,98.85
2018-10-07T08:20:04.298Z,99.14
2018-10-07T08:21:04.293Z,98.94
2018-10-07T08:22:04.288Z,99.14
2018-10-07T08:23:04.908Z,99.04
2018-10-07T08:24:04.280Z,98.85
2018-10-07T08:25:04.277Z,98.66
2018-10-07T08:26:04.285Z,99.14
2018-10-07T08:27:04.272Z,98.94
2018-10-07T08:28:04.269Z,99.71
2018-10-07T08:29:04.266Z,99.62
2018-10-07T08:30:04.268Z,98.94
2018-10-07T08:31:04.259Z,99.80
2018-10-07T08:32:04.265Z,98.85
2018-10-07T08:33:04.991Z,99.14
2018-10-07T08:34:04.255Z,98.47
2018-10-07T08:35:04.256Z,97.99
2018-10-07T08:36:04.242Z,98.18
2018-10-07T08:37:04.234Z,97.42
2018-10-07T08:38:04.233Z,96.56
2018-10-07T08:39:04.228Z,96.56
2018-10-07T08:40:04.225Z,96.66
2018-10-07T08:41:04.222Z,96.46
2018-10-07T08:42:04.222Z,96.22
2018-10-07T08:43:04.211Z,95.70
2018-10-07T08:44:04.211Z,96.08
2018-10-07T08:45:04.209Z,95.98
2018-10-07T08:46:04.200Z,96.27
2018-10-07T08:47:04.200Z,95.46
2018-10-07T08:48:04.200Z,95.56
2018-10-07T08:49:04.198Z,95.56
2018-10-07T08:50:04.191Z,95.84
2018-10-07T08:51:04.189Z,95.17
2018-10-07T08:52:04.186Z,95.70
2018-10-07T08:53:04.175Z,95.17
2018-10-07T08:54:04.174Z,95.12
2018-10-07T08:55:04.166Z,95.41
2018-10-07T08:56:04.264Z,94.74
2018-10-07T08:57:04.165Z,94.65
2018-10-07T08:58:04.159Z,94.17
2018-10-07T08:59:04.155Z,93.88
2018-10-07T09:00:04.150Z,93.50
2018-10-07T09:01:04.154Z,92.59
2018-10-07T09:02:04.215Z,91.97
2018-10-07T09:03:04.142Z,91.97
2018-10-07T09:04:04.135Z,92.45
2018-10-07T09:05:04.128Z,92.26
2018-10-07T09:06:04.122Z,92.26
2018-10-07T09:07:04.125Z,91.69
2018-10-07T09:08:04.124Z,92.83
2018-10-07T09:09:04.115Z,92.74
2018-10-07T09:10:04.120Z,92.64
2018-10-07T09:11:04.119Z,92.55
2018-10-07T09:12:04.106Z,92.45
2018-10-07T09:13:04.109Z,92.64
2018-10-07T09:14:04.101Z,92.93
2018-10-07T09:15:04.101Z,92.83
2018-10-07T09:16:04.099Z,92.93
2018-10-07T09:17:04.085Z,92.97
2018-10-07T09:18:04.090Z,92.50
2018-10-07T09:19:04.084Z,92.60
2018-10-07T09:20:04.079Z,92.21
2018-10-07T09:21:04.141Z,92.12
2018-10-07T09:22:04.075Z,92.12
2018-10-07T09:23:04.069Z,92.31
2018-10-07T09:24:04.065Z,92.69
2018-10-07T09:25:04.057Z,92.31
2018-10-07T09:26:04.055Z,92.02
2018-10-07T09:27:04.105Z,91.26
2018-10-07T09:28:04.049Z,91.36
2018-10-07T09:29:04.042Z,92.12
2018-10-07T09:30:04.037Z,91.55
2018-10-07T09:31:04.046Z,92.31
2018-10-07T09:32:04.040Z,91.83
2018-10-07T09:33:04.030Z,92.26
2018-10-07T09:34:04.025Z,91.50
2018-10-07T09:35:04.017Z,91.93
2018-10-07T09:36:04.016Z,91.50
2018-10-07T09:37:04.009Z,91.88
2018-10-07T09:38:04.009Z,91.69
2018-10-07T09:39:04.006Z,92.07
2018-10-07T09:40:04.001Z,91.41
2018-10-07T09:41:04.000Z,91.50
2018-10-07T09:42:03.993Z,92.26
2018-10-07T09:43:03.989Z,91.69
2018-10-07T09:44:03.982Z,91.69
2018-10-07T09:45:03.977Z,91.31
2018-10-07T09:46:03.979Z,90.73
2018-10-07T09:47:03.990Z,90.83
2018-10-07T09:48:03.971Z,90.07
2018-10-07T09:49:03.964Z,89.59
2018-10-07T09:50:03.998Z,89.78
2018-10-07T09:51:03.953Z,89.97
2018-10-07T09:52:03.952Z,89.50
2018-10-07T09:53:03.944Z,89.69
2018-10-07T09:54:03.944Z,89.97
2018-10-07T09:55:03.940Z,89.97
2018-10-07T09:56:03.936Z,90.07
2018-10-07T09:57:03.928Z,90.07
2018-10-07T09:58:03.980Z,90.07
2018-10-07T09:59:04.436Z,90.26
2018-10-07T10:00:03.916Z,90.73
2018-10-07T10:01:03.915Z,90.26
2018-10-07T10:02:03.907Z,90.26
2018-10-07T10:03:03.910Z,89.97
2018-10-07T10:04:03.959Z,90.07
2018-10-07T10:05:03.897Z,90.02
2018-10-07T10:06:03.898Z,89.35
2018-10-07T10:07:03.965Z,89.21
2018-10-07T10:08:03.890Z,89.83
2018-10-07T10:09:03.881Z,89.45
2018-10-07T10:10:03.874Z,89.59
2018-10-07T10:11:03.947Z,89.88
2018-10-07T10:12:03.865Z,90.26
2018-10-07T10:13:03.860Z,90.36
2018-10-07T10:14:03.890Z,90.26
2018-10-07T10:15:03.856Z,89.78
2018-10-07T10:16:03.851Z,90.36
2018-10-07T10:17:03.845Z,90.55
2018-10-07T10:18:03.848Z,89.88
2018-10-07T10:19:03.845Z,89.50
2018-10-07T10:20:03.837Z,89.88
2018-10-07T10:21:03.831Z,89.02
2018-10-07T10:22:03.829Z,89.59
2018-10-07T10:23:03.821Z,89.69
2018-10-07T10:24:03.821Z,89.78
2018-10-07T10:25:03.819Z,89.31
2018-10-07T10:26:03.808Z,89.59
2018-10-07T10:27:03.806Z,89.21
2018-10-07T10:28:03.809Z,89.59
2018-10-07T10:29:03.795Z,89.21
2018-10-07T10:30:03.822Z,89.12
2018-10-07T10:31:03.788Z,89.21
2018-10-07T10:32:03.784Z,89.59
2018-10-07T10:33:03.781Z,89.78
2018-10-07T10:34:04.443Z,89.78
2018-10-07T10:35:03.775Z,89.69
2018-10-07T10:36:03.768Z,89.69
2018-10-07T10:37:03.768Z,89.12
2018-10-07T10:38:03.757Z,88.83
2018-10-07T10:39:03.755Z,88.73
2018-10-07T10:40:03.845Z,89.31
2018-10-07T10:41:03.748Z,89.02
2018-10-07T10:42:03.749Z,88.64
2018-10-07T10:43:03.739Z,89.21
2018-10-07T10:44:03.734Z,88.45
2018-10-07T10:45:03.730Z,88.64
2018-10-07T10:46:03.730Z,88.45
2018-10-07T10:47:03.721Z,88.07
2018-10-07T10:48:03.785Z,88.16
2018-10-07T10:49:03.712Z,87.92
2018-10-07T10:50:03.710Z,87.44
2018-10-07T10:51:03.704Z,86.87
2018-10-07T10:52:03.703Z,86.87
2018-10-07T10:53:03.818Z,87.15
2018-10-07T10:54:03.692Z,86.87
2018-10-07T10:55:03.710Z,87.15
2018-10-07T10:56:03.683Z,87.06
2018-10-07T10:57:03.680Z,86.96
2018-10-07T10:58:03.673Z,87.06
2018-10-07T10:59:03.675Z,86.68
2018-10-07T11:00:03.672Z,86.10
2018-10-07T11:01:03.731Z,86.58
2018-10-07T11:02:03.664Z,86.68
2018-10-07T11:03:03.662Z,87.06
2018-10-07T11:04:04.523Z,86.87
2018-10-07T11:05:03.652Z,86.68
2018-10-07T11:06:03.650Z,86.87
2018-10-07T11:07:04.528Z,86.87
2018-10-07T11:08:03.630Z,86.10
2018-10-07T11:09:03.643Z,86.87
2018-10-07T11:10:03.626Z,86.58
2018-10-07T11:11:03.624Z,86.87
2018-10-07T11:12:03.622Z,87.06
2018-10-07T11:13:03.616Z,86.68
2018-10-07T11:14:03.611Z,86.77
2018-10-07T11:15:03.615Z,86.58
2018-10-07T11:16:03.602Z,85.72
2018-10-07T11:17:03.602Z,85.72
2018-10-07T11:18:03.597Z,85.05
2018-10-07T11:19:03.595Z,85.25
2018-10-07T11:20:03.587Z,85.34
2018-10-07T11:21:03.579Z,84.77
2018-10-07T11:22:03.582Z,83.81
2018-10-07T11:23:03.575Z,83.34
2018-10-07T11:24:03.587Z,83.62
2018-10-07T11:25:03.590Z,83.53
2018-10-07T11:26:03.616Z,83.91
2018-10-07T11:27:03.562Z,83.43
2018-10-07T11:28:03.553Z,83.43
2018-10-07T11:29:03.558Z,83.72
2018-10-07T11:30:04.458Z,84.00
2018-10-07T11:31:03.548Z,83.72
2018-10-07T11:32:03.543Z,83.81
2018-10-07T11:33:03.537Z,83.62
2018-10-07T11:34:03.547Z,84.10
2018-10-07T11:35:03.531Z,84.86
2018-10-07T11:36:03.524Z,85.44
2018-10-07T11:37:03.521Z,85.25
2018-10-07T11:38:03.515Z,85.25
2018-10-07T11:39:03.512Z,85.15
2018-10-07T11:40:03.508Z,85.44
2018-10-07T11:41:03.511Z,84.48
2018-10-07T11:42:03.501Z,84.29
2018-10-07T11:43:03.497Z,84.29
2018-10-07T11:44:04.466Z,83.76
2018-10-07T11:45:03.498Z,82.71
2018-10-07T11:46:03.486Z,82.42
2018-10-07T11:47:03.481Z,82.14
2018-10-07T11:48:03.477Z,81.85
2018-10-07T11:49:03.473Z,82.04
2018-10-07T11:50:03.473Z,81.81
2018-10-07T11:51:03.464Z,81.95
2018-10-07T11:52:03.464Z,82.04
2018-10-07T11:53:03.470Z,82.23
2018-10-07T11:54:03.458Z,81.76
2018-10-07T11:55:04.050Z,81.47
2018-10-07T11:56:03.448Z,81.95
2018-10-07T11:57:03.442Z,81.66
2018-10-07T11:58:03.447Z,81.33
2018-10-07T11:59:03.435Z,81.33
2018-10-07T12:00:03.436Z,80.76
2018-10-07T12:01:03.428Z,81.52
2018-10-07T12:02:03.446Z,81.62
2018-10-07T12:03:03.427Z,81.71
2018-10-07T12:04:03.419Z,81.90
2018-10-07T12:05:03.418Z,82.00
2018-10-07T12:06:03.409Z,82.19
2018-10-07T12:07:03.404Z,82.19
2018-10-07T12:08:03.407Z,82.29
2018-10-07T12:09:03.398Z,82.29
2018-10-07T12:10:03.420Z,82.76
2018-10-07T12:11:03.392Z,83.14
2018-10-07T12:12:03.393Z,82.76
2018-10-07T12:13:03.386Z,83.34
2018-10-07T12:14:03.379Z,83.43
2018-10-07T12:15:03.376Z,82.76
2018-10-07T12:16:03.374Z,82.95
2018-10-07T12:17:03.366Z,82.48
2018-10-07T12:18:03.365Z,82.71
2018-10-07T12:19:03.360Z,82.42
2018-10-07T12:20:03.361Z,83.00
2018-10-07T12:21:03.353Z,82.81
2018-10-07T12:22:03.350Z,82.71
2018-10-07T12:23:03.350Z,81.95
2018-10-07T12:24:03.354Z,81.47
2018-10-07T12:25:03.338Z,81.09
2018-10-07T12:26:03.338Z,80.80
2018-10-07T12:27:03.330Z,80.90
2018-10-07T12:28:03.326Z,79.65
2018-10-07T12:29:03.381Z,80.65
2018-10-07T12:30:03.316Z,80.74
2018-10-07T12:31:03.322Z,80.07
2018-10-07T12:32:03.339Z,78.74
2018-10-07T12:33:03.307Z,79.36
2018-10-07T12:34:03.310Z,79.17
2018-10-07T12:35:03.318Z,80.04
2018-10-07T12:36:03.302Z,79.46
2018-10-07T12:37:03.296Z,80.07
2018-10-07T12:38:03.293Z,79.08
2018-10-07T12:39:03.294Z,79.41
2018-10-07T12:40:03.289Z,78.36
2018-10-07T12:41:03.281Z,78.22
2018-10-07T12:42:03.280Z,78.16
2018-10-07T12:43:03.279Z,77.87
2018-10-07T12:44:03.275Z,76.92
2018-10-07T12:45:03.269Z,77.01
2018-10-07T12:46:03.261Z,76.35
2018-10-07T12:47:03.263Z,76.54
2018-10-07T12:48:03.259Z,75.30
2018-10-07T12:49:03.254Z,74.91
2018-10-07T12:50:03.257Z,73.86
2018-10-07T12:51:03.256Z,73.43
2018-10-07T12:52:03.247Z,72.66